createdAt,value
2023-05-09T00:01:58.740Z,100767.23
2023-05-09T00:04:29.350Z,100769.61
2023-05-09T00:06:59.357Z,100764.45
2023-05-09T00:09:29.656Z,100767.31
2023-05-09T00:11:59.626Z,100767.40
2023-05-09T00:14:30.828Z,100764.55
2023-05-09T00:17:00.899Z,100762.58
2023-05-09T00:19:31.603Z,100761.05
2023-05-09T00:22:01.582Z,100762.48
2023-05-09T00:24:31.946Z,100765.27
2023-05-09T00:27:01.910Z,100759.27
2023-05-09T00:29:31.862Z,100766.05
2023-05-09T00:32:01.811Z,100764.23
2023-05-09T00:34:32.022Z,100764.86
2023-05-09T00:37:02.204Z,100764.63
2023-05-09T00:39:32.803Z,100760.56
2023-05-09T00:42:03.650Z,100764.78
2023-05-09T00:44:33.883Z,100761.45
2023-05-09T00:47:03.876Z,100763.23
2023-05-09T00:49:34.118Z,100762.17
2023-05-09T00:52:04.947Z,100760.55
2023-05-09T00:54:34.899Z,100766.29
2023-05-09T00:57:05.054Z,100760.81
2023-05-09T00:59:38.126Z,100763.95
2023-05-09T01:02:08.030Z,100761.89
2023-05-09T01:04:38.084Z,100763.83
2023-05-09T01:07:12.004Z,100763.83
2023-05-09T01:09:46.100Z,100765.41
2023-05-09T01:12:19.787Z,100769.02
2023-05-09T01:14:52.984Z,100765.62
2023-05-09T01:17:27.600Z,100768.39
2023-05-09T01:20:05.828Z,100762.08
2023-05-09T01:22:36.426Z,100764.55
2023-05-09T01:25:28.995Z,100769.30
2023-05-09T01:28:04.478Z,100764.02
2023-05-09T01:30:34.797Z,100768.17
2023-05-09T01:33:06.779Z,100773.02
2023-05-09T01:35:37.745Z,100774.94
2023-05-09T01:38:14.367Z,100774.95
2023-05-09T01:40:44.652Z,100772.53
2023-05-09T01:43:15.151Z,100774.83
2023-05-09T01:45:45.105Z,100771.09
2023-05-09T01:48:15.150Z,100772.45
2023-05-09T01:50:45.636Z,100772.41
2023-05-09T01:53:16.693Z,100771.18
2023-05-09T01:55:46.747Z,100769.96
2023-05-09T01:58:16.587Z,100769.97
2023-05-09T02:00:47.445Z,100772.10
2023-05-09T02:03:17.395Z,100774.17
2023-05-09T02:05:47.351Z,100769.95
2023-05-09T02:08:21.132Z,100765.14
2023-05-09T02:10:51.881Z,100764.60
2023-05-09T02:13:22.010Z,100766.55
2023-05-09T02:15:52.661Z,100762.38
2023-05-09T02:18:22.915Z,100767.28
2023-05-09T02:20:52.946Z,100765.66
2023-05-09T02:23:23.419Z,100766.84
2023-05-09T02:25:54.212Z,100768.02
2023-05-09T02:28:26.292Z,100764.48
2023-05-09T02:30:56.348Z,100764.83
2023-05-09T02:33:26.539Z,100767.11
2023-05-09T02:35:56.692Z,100765.38
2023-05-09T02:38:27.522Z,100763.62
2023-05-09T02:40:58.686Z,100763.63
2023-05-09T02:43:30.293Z,100769.60
2023-05-09T02:46:00.370Z,100765.58
2023-05-09T02:48:31.094Z,100767.68
2023-05-09T02:51:01.195Z,100770.14
2023-05-09T02:53:31.281Z,100770.68
2023-05-09T02:56:01.334Z,100765.77
2023-05-09T02:58:31.618Z,100768.56
2023-05-09T03:01:02.440Z,100771.91
2023-05-09T03:03:34.841Z,100767.02
2023-05-09T03:06:10.643Z,100772.98
2023-05-09T03:08:45.644Z,100772.98
2023-05-09T03:11:16.639Z,100770.73
2023-05-09T03:13:48.270Z,100775.25
2023-05-09T03:16:18.921Z,100775.23
2023-05-09T03:18:49.385Z,100778.02
2023-05-09T03:21:20.454Z,100776.92
2023-05-09T03:23:50.371Z,100782.10
2023-05-09T03:26:20.920Z,100782.77
2023-05-09T03:28:52.494Z,100786.96
2023-05-09T03:31:23.059Z,100787.10
2023-05-09T03:33:53.875Z,100789.01
2023-05-09T03:36:24.132Z,100792.14
2023-05-09T03:38:54.224Z,100795.79
2023-05-09T03:41:24.414Z,100791.52
2023-05-09T03:43:54.779Z,100795.64
2023-05-09T03:46:25.036Z,100795.55
2023-05-09T03:48:55.906Z,100798.98
2023-05-09T03:51:26.774Z,100796.84
2023-05-09T03:53:56.818Z,100797.84
2023-05-09T03:56:27.063Z,100801.13
2023-05-09T03:58:57.415Z,100801.27
2023-05-09T04:01:27.725Z,100801.16
2023-05-09T04:03:58.672Z,100806.68
2023-05-09T04:06:30.127Z,100801.46
2023-05-09T04:09:00.379Z,100798.23
2023-05-09T04:11:31.151Z,100803.74
2023-05-09T04:14:01.836Z,100806.64
2023-05-09T04:16:34.905Z,100811.80
2023-05-09T04:19:05.206Z,100810.63
2023-05-09T04:21:35.285Z,100814.38
2023-05-09T04:24:07.252Z,100815.90
2023-05-09T04:26:44.301Z,100817.58
2023-05-09T04:29:16.684Z,100816.79
2023-05-09T04:31:50.547Z,100817.94
2023-05-09T04:34:21.234Z,100812.01
2023-05-09T04:36:52.124Z,100816.80
2023-05-09T04:39:22.722Z,100819.30
2023-05-09T04:41:59.532Z,100814.99
2023-05-09T04:44:29.775Z,100821.08
2023-05-09T04:46:59.813Z,100823.44
2023-05-09T04:49:32.099Z,100819.84
2023-05-09T04:52:01.927Z,100821.16
2023-05-09T04:54:32.152Z,100818.73
2023-05-09T04:57:13.775Z,100823.16
2023-05-09T04:59:48.826Z,100831.30
2023-05-09T05:02:18.812Z,100827.90
2023-05-09T05:04:49.079Z,100831.20
2023-05-09T05:07:19.225Z,100833.45
2023-05-09T05:09:49.151Z,100832.30
2023-05-09T05:12:19.144Z,100824.06
2023-05-09T05:14:49.493Z,100822.17
2023-05-09T05:17:21.868Z,100826.85
2023-05-09T05:19:51.876Z,100817.95
2023-05-09T05:22:22.055Z,100819.61
2023-05-09T05:24:52.259Z,100821.41
2023-05-09T05:27:22.592Z,100823.52
2023-05-09T05:29:52.589Z,100828.77
2023-05-09T05:32:22.440Z,100830.34
2023-05-09T05:34:52.740Z,100828.44
2023-05-09T05:37:22.667Z,100827.57
2023-05-09T05:39:53.269Z,100830.70
2023-05-09T05:42:23.564Z,100825.15
2023-05-09T05:44:53.984Z,100823.77
2023-05-09T05:47:24.004Z,100826.25
2023-05-09T05:49:55.035Z,100826.84
2023-05-09T05:52:26.371Z,100827.45
2023-05-09T05:54:57.184Z,100826.45
2023-05-09T05:57:27.551Z,100824.41
2023-05-09T05:59:57.824Z,100824.15
2023-05-09T06:02:28.057Z,100826.98
2023-05-09T06:04:58.156Z,100828.30
2023-05-09T06:07:28.106Z,100830.84
2023-05-09T06:09:58.289Z,100831.63
2023-05-09T06:12:28.662Z,100829.77
2023-05-09T06:14:58.959Z,100827.06
2023-05-09T06:17:29.477Z,100829.82
2023-05-09T06:19:59.748Z,100831.65
2023-05-09T06:22:29.781Z,100832.05
2023-05-09T06:24:59.823Z,100832.04
2023-05-09T06:27:29.884Z,100830.41
2023-05-09T06:30:01.340Z,100830.79
2023-05-09T06:32:33.176Z,100828.93
2023-05-09T06:35:03.337Z,100829.77
2023-05-09T06:37:35.796Z,100831.64
2023-05-09T06:40:08.065Z,100831.53
2023-05-09T06:42:38.741Z,100830.08
2023-05-09T06:45:10.182Z,100830.77
2023-05-09T06:47:40.801Z,100833.21
2023-05-09T06:50:11.545Z,100829.96
2023-05-09T06:52:41.399Z,100827.16
2023-05-09T06:55:12.410Z,100829.01
2023-05-09T06:57:42.618Z,100826.49
2023-05-09T07:00:15.174Z,100817.40
2023-05-09T07:02:45.419Z,100813.59
2023-05-09T07:05:16.535Z,100811.14
2023-05-09T07:07:46.996Z,100815.77
2023-05-09T07:10:17.314Z,100808.40
2023-05-09T07:12:47.299Z,100808.88
2023-05-09T07:15:25.900Z,100804.59
2023-05-09T07:18:02.586Z,100806.70
2023-05-09T07:20:34.079Z,100796.69
2023-05-09T07:23:04.312Z,100801.75
2023-05-09T07:25:34.222Z,100794.05
2023-05-09T07:28:04.427Z,100791.52
2023-05-09T07:30:34.686Z,100791.80
2023-05-09T07:33:04.856Z,100791.96
2023-05-09T07:35:35.385Z,100791.28
2023-05-09T07:38:06.457Z,100785.55
2023-05-09T07:40:38.835Z,100784.34
2023-05-09T07:43:08.787Z,100782.95
2023-05-09T07:45:40.085Z,100783.30
2023-05-09T07:48:09.970Z,100778.88
2023-05-09T07:50:40.385Z,100781.16
2023-05-09T07:53:10.428Z,100779.52
2023-05-09T07:55:40.381Z,100777.33
2023-05-09T07:58:10.348Z,100778.66
2023-05-09T08:00:40.409Z,100778.27
2023-05-09T08:03:11.272Z,100770.92
2023-05-09T08:05:41.434Z,100764.78
2023-05-09T08:08:11.330Z,100765.54
2023-05-09T08:10:41.365Z,100762.92
2023-05-09T08:13:11.454Z,100760.80
2023-05-09T08:15:41.345Z,100761.54
2023-05-09T08:18:11.382Z,100755.91
2023-05-09T08:20:41.365Z,100753.77
2023-05-09T08:23:11.449Z,100763.88
2023-05-09T08:25:41.575Z,100757.59
2023-05-09T08:28:12.204Z,100753.39
2023-05-09T08:30:42.049Z,100758.65
2023-05-09T08:33:12.057Z,100754.97
2023-05-09T08:35:42.014Z,100750.24
2023-05-09T08:38:12.030Z,100751.60
2023-05-09T08:40:42.353Z,100749.61
2023-05-09T08:43:12.904Z,100750.70
2023-05-09T08:45:46.984Z,100747.56
2023-05-09T08:48:17.741Z,100744.36
2023-05-09T08:50:47.644Z,100737.71
2023-05-09T08:53:17.746Z,100741.43
2023-05-09T08:55:47.636Z,100745.02
2023-05-09T08:58:19.700Z,100744.20
2023-05-09T09:00:50.761Z,100736.48
2023-05-09T09:03:20.603Z,100734.96
2023-05-09T09:05:50.700Z,100741.02
2023-05-09T09:08:21.324Z,100740.63
2023-05-09T09:10:51.522Z,100735.29
2023-05-09T09:13:21.960Z,100744.20
2023-05-09T09:15:51.966Z,100735.34
2023-05-09T09:18:24.568Z,100736.06
2023-05-09T09:20:58.040Z,100735.41
2023-05-09T09:23:28.184Z,100733.69
2023-05-09T09:26:02.343Z,100731.05
2023-05-09T09:28:32.895Z,100729.34
2023-05-09T09:31:02.782Z,100724.23
2023-05-09T09:33:32.876Z,100727.91
2023-05-09T09:36:02.928Z,100727.73
2023-05-09T09:38:40.623Z,100726.16
2023-05-09T09:41:13.141Z,100719.23
2023-05-09T09:43:45.189Z,100720.96
2023-05-09T09:46:17.254Z,100721.61
2023-05-09T09:48:55.034Z,100729.14
2023-05-09T09:51:24.870Z,100726.48
2023-05-09T09:53:54.710Z,100718.23
2023-05-09T09:56:25.414Z,100719.70
2023-05-09T09:59:10.351Z,100721.13
2023-05-09T10:01:57.328Z,100724.34
2023-05-09T10:04:29.407Z,100724.48
2023-05-09T10:07:00.358Z,100723.53
2023-05-09T10:09:30.599Z,100723.57
2023-05-09T10:12:04.132Z,100719.75
2023-05-09T10:14:38.860Z,100723.86
2023-05-09T10:17:09.228Z,100721.90
2023-05-09T10:19:39.662Z,100716.95
2023-05-09T10:22:10.193Z,100714.91
2023-05-09T10:24:42.403Z,100710.56
2023-05-09T10:27:13.305Z,100704.38
2023-05-09T10:29:46.917Z,100703.77
2023-05-09T10:32:18.264Z,100689.64
2023-05-09T10:34:50.238Z,100701.67
2023-05-09T10:37:20.661Z,100695.64
2023-05-09T10:39:53.948Z,100696.70
2023-05-09T10:42:26.752Z,100695.83
2023-05-09T10:44:57.560Z,100692.58
2023-05-09T10:47:28.343Z,100688.60
2023-05-09T10:49:58.375Z,100685.52
2023-05-09T10:52:32.065Z,100687.00
2023-05-09T10:55:04.130Z,100681.65
2023-05-09T10:57:38.148Z,100691.45
2023-05-09T11:00:11.320Z,100690.02
2023-05-09T11:02:41.893Z,100687.87
2023-05-09T11:05:15.940Z,100688.63
2023-05-09T11:07:46.282Z,100686.99
2023-05-09T11:10:20.220Z,100681.84
2023-05-09T11:12:58.188Z,100684.46
2023-05-09T11:15:29.652Z,100681.02
2023-05-09T11:18:09.678Z,100676.71
2023-05-09T11:20:44.185Z,100669.17
2023-05-09T11:23:17.311Z,100666.70
2023-05-09T11:25:48.787Z,100661.35
2023-05-09T11:28:29.425Z,100660.77
2023-05-09T11:31:11.455Z,100654.28
2023-05-09T11:33:42.130Z,100658.52
2023-05-09T11:36:19.545Z,100657.23
2023-05-09T11:38:49.488Z,100661.15
2023-05-09T11:41:19.318Z,100657.46
2023-05-09T11:43:49.185Z,100656.70
2023-05-09T11:46:19.340Z,100656.50
2023-05-09T11:48:50.639Z,100655.34
2023-05-09T11:51:20.497Z,100655.50
2023-05-09T11:53:54.190Z,100654.83
2023-05-09T11:56:24.342Z,100651.77
2023-05-09T11:58:54.755Z,100648.33
2023-05-09T12:01:24.788Z,100650.78
2023-05-09T12:03:54.702Z,100651.14
2023-05-09T12:06:26.103Z,100644.56
2023-05-09T12:08:57.393Z,100636.63
2023-05-09T12:11:28.603Z,100625.05
2023-05-09T12:14:00.479Z,100620.70
2023-05-09T12:16:30.784Z,100617.77
2023-05-09T12:19:00.930Z,100613.60
2023-05-09T12:21:31.511Z,100611.11
2023-05-09T12:24:01.445Z,100605.16
2023-05-09T12:26:31.643Z,100600.67
2023-05-09T12:29:01.930Z,100596.36
2023-05-09T12:37:18.066Z,100595.08
2023-05-09T12:41:30.897Z,100598.22
2023-05-09T12:44:29.652Z,100594.34
2023-05-09T12:47:21.734Z,100598.15
2023-05-09T12:49:51.761Z,100598.71
2023-05-09T12:52:21.751Z,100592.23
2023-05-09T12:54:51.979Z,100588.70
2023-05-09T12:57:29.492Z,100584.80
2023-05-09T13:00:00.991Z,100583.96
2023-05-09T13:02:35.772Z,100587.14
2023-05-09T13:05:11.118Z,100588.16
2023-05-09T13:07:42.655Z,100585.45
2023-05-09T13:10:16.004Z,100583.59
2023-05-09T13:12:49.067Z,100584.15
2023-05-09T13:15:20.236Z,100582.39
2023-05-09T13:17:50.980Z,100581.80
2023-05-09T13:20:21.247Z,100577.39
2023-05-09T13:22:51.240Z,100578.09
2023-05-09T13:25:21.832Z,100574.70
2023-05-09T13:27:51.693Z,100575.27
2023-05-09T13:30:21.541Z,100571.28
2023-05-09T13:32:52.145Z,100569.27
2023-05-09T13:35:22.015Z,100561.83
2023-05-09T13:37:52.106Z,100558.40
2023-05-09T13:40:22.089Z,100564.77
2023-05-09T13:42:52.265Z,100564.38
2023-05-09T13:45:23.512Z,100559.69
2023-05-09T13:47:53.488Z,100560.98
2023-05-09T13:50:23.620Z,100563.67
2023-05-09T13:52:53.744Z,100558.80
2023-05-09T13:55:26.001Z,100551.05
2023-05-09T13:57:56.060Z,100559.64
2023-05-09T14:00:28.954Z,100561.92
2023-05-09T14:02:59.057Z,100558.16
2023-05-09T14:05:29.028Z,100554.52
2023-05-09T14:07:58.971Z,100555.59
2023-05-09T14:10:29.091Z,100554.14
2023-05-09T14:12:59.599Z,100548.15
2023-05-09T14:15:30.014Z,100546.41
2023-05-09T14:17:59.915Z,100550.27
2023-05-09T14:20:29.904Z,100548.60
2023-05-09T14:23:00.707Z,100551.47
2023-05-09T14:25:30.916Z,100552.55
2023-05-09T14:28:01.478Z,100551.68
2023-05-09T14:30:31.727Z,100549.85
2023-05-09T14:33:01.568Z,100548.48
2023-05-09T14:35:34.154Z,100539.52
2023-05-09T14:38:04.312Z,100540.95
2023-05-09T14:40:34.453Z,100544.60
2023-05-09T14:43:04.510Z,100545.98
2023-05-09T14:45:35.379Z,100541.16
2023-05-09T14:48:05.796Z,100541.52
2023-05-09T14:50:36.557Z,100537.41
2023-05-09T14:53:06.618Z,100534.45
2023-05-09T14:55:37.305Z,100533.07
2023-05-09T14:58:07.807Z,100532.86
2023-05-09T15:00:38.101Z,100530.95
2023-05-09T15:03:08.003Z,100530.88
2023-05-09T15:05:37.900Z,100527.78
2023-05-09T15:08:08.134Z,100530.45
2023-05-09T15:10:38.224Z,100533.88
2023-05-09T15:13:08.398Z,100539.27
2023-05-09T15:15:39.553Z,100538.13
2023-05-09T15:18:13.294Z,100535.45
2023-05-09T15:20:43.749Z,100537.49
2023-05-09T15:23:14.198Z,100534.52
2023-05-09T15:25:44.536Z,100530.99
2023-05-09T15:28:14.466Z,100532.65
2023-05-09T15:30:45.423Z,100528.87
2023-05-09T15:33:15.709Z,100533.04
2023-05-09T15:35:46.824Z,100529.40
2023-05-09T15:38:17.215Z,100528.27
2023-05-09T15:40:47.824Z,100526.82
2023-05-09T15:43:17.960Z,100522.46
2023-05-09T15:45:48.280Z,100516.51
2023-05-09T15:48:18.287Z,100516.77
2023-05-09T15:50:49.040Z,100519.86
2023-05-09T15:53:19.166Z,100519.48
2023-05-09T15:55:49.519Z,100517.73
2023-05-09T15:58:20.098Z,100511.80
2023-05-09T16:00:52.318Z,100514.39
2023-05-09T16:03:23.262Z,100515.41
2023-05-09T16:05:53.335Z,100512.98
2023-05-09T16:08:23.618Z,100513.95
2023-05-09T16:10:53.515Z,100518.13
2023-05-09T16:13:23.861Z,100515.66
2023-05-09T16:15:54.183Z,100516.36
2023-05-09T16:18:24.503Z,100511.56
2023-05-09T16:20:54.878Z,100509.15
2023-05-09T16:23:26.084Z,100508.86
2023-05-09T16:25:56.094Z,100509.67
2023-05-09T16:28:28.018Z,100511.19
2023-05-09T16:30:58.012Z,100512.94
2023-05-09T16:33:28.487Z,100515.45
2023-05-09T16:35:59.155Z,100508.35
2023-05-09T16:38:29.042Z,100509.59
2023-05-09T16:40:59.061Z,100508.31
2023-05-09T16:43:30.692Z,100507.60
2023-05-09T16:46:00.742Z,100506.70
2023-05-09T16:48:30.893Z,100505.64
2023-05-09T16:51:00.756Z,100502.73
2023-05-09T16:53:30.670Z,100507.23
2023-05-09T16:56:00.561Z,100509.09
2023-05-09T16:58:30.768Z,100507.70
2023-05-09T17:01:02.220Z,100510.44
2023-05-09T17:03:32.289Z,100509.92
2023-05-09T17:06:02.574Z,100507.66
2023-05-09T17:08:32.600Z,100510.00
2023-05-09T17:11:02.526Z,100512.00
2023-05-09T17:13:32.617Z,100512.89
2023-05-09T17:16:02.754Z,100511.27
2023-05-09T17:18:37.370Z,100514.85
2023-05-09T17:21:07.805Z,100515.54
2023-05-09T17:23:38.272Z,100517.02
2023-05-09T17:26:08.322Z,100517.40
2023-05-09T17:28:38.232Z,100519.37
2023-05-09T17:31:08.331Z,100521.13
2023-05-09T17:33:39.926Z,100523.27
2023-05-09T17:36:10.454Z,100524.04
2023-05-09T17:38:40.586Z,100527.83
2023-05-09T17:41:10.435Z,100528.29
2023-05-09T17:43:42.573Z,100523.92
2023-05-09T17:46:12.664Z,100525.94
2023-05-09T17:48:42.804Z,100524.17
2023-05-09T17:51:12.705Z,100524.36
2023-05-09T17:53:42.903Z,100519.48
2023-05-09T17:56:12.961Z,100520.80
2023-05-09T17:58:43.069Z,100527.73
2023-05-09T18:01:13.545Z,100523.87
2023-05-09T18:03:43.489Z,100527.98
2023-05-09T18:06:13.482Z,100532.67
2023-05-09T18:08:43.413Z,100529.80
2023-05-09T18:11:13.598Z,100530.66
2023-05-09T18:13:46.426Z,100532.51
2023-05-09T18:16:16.517Z,100532.65
2023-05-09T18:18:46.521Z,100533.69
2023-05-09T18:21:16.403Z,100538.21
2023-05-09T18:23:46.358Z,100536.70
2023-05-09T18:26:17.021Z,100539.86
2023-05-09T18:28:47.124Z,100538.40
2023-05-09T18:31:18.085Z,100538.94
2023-05-09T18:33:47.958Z,100538.73
2023-05-09T18:36:18.221Z,100538.48
2023-05-09T18:42:06.293Z,100544.88
2023-05-09T18:44:37.447Z,100549.90
2023-05-09T18:47:07.676Z,100551.77
2023-05-09T18:49:38.684Z,100545.55
2023-05-09T18:52:08.806Z,100544.68
2023-05-09T18:54:41.153Z,100540.57
2023-05-09T18:57:11.121Z,100542.06
2023-05-09T18:59:40.990Z,100544.38
2023-05-09T19:02:11.124Z,100542.63
2023-05-09T19:04:48.205Z,100538.69
2023-05-09T19:07:18.290Z,100537.02
2023-05-09T19:09:48.554Z,100536.55
2023-05-09T19:12:18.672Z,100533.29
2023-05-09T19:14:49.041Z,100534.31
2023-05-09T19:17:19.000Z,100532.19
2023-05-09T19:19:49.066Z,100534.80
2023-05-09T19:22:18.923Z,100534.59
2023-05-09T19:24:51.468Z,100532.95
2023-05-09T19:27:22.583Z,100534.33
2023-05-09T19:40:32.371Z,100532.13
2023-05-09T19:43:02.280Z,100537.78
2023-05-09T19:45:32.304Z,100540.64
2023-05-09T19:48:02.441Z,100541.37
2023-05-09T19:50:32.716Z,100539.67
2023-05-09T19:53:02.540Z,100538.25
2023-05-09T19:55:32.591Z,100535.42
2023-05-09T19:58:02.855Z,100535.92
2023-05-09T20:00:33.493Z,100533.96
2023-05-09T20:03:04.140Z,100536.11
2023-05-09T20:05:35.409Z,100534.03
2023-05-09T20:08:05.645Z,100534.58
2023-05-09T20:10:37.794Z,100535.02
2023-05-09T20:13:07.821Z,100533.14
2023-05-09T20:15:39.272Z,100527.59
2023-05-09T20:18:09.231Z,100522.34
2023-05-09T20:20:39.332Z,100522.96
2023-05-09T20:23:09.217Z,100517.63
2023-05-09T20:25:39.915Z,100517.48
2023-05-09T20:28:11.928Z,100520.41
2023-05-09T20:30:42.734Z,100518.37
2023-05-09T20:33:12.595Z,100516.17
2023-05-09T20:35:43.646Z,100515.27
2023-05-09T20:38:13.570Z,100512.78
2023-05-09T20:40:44.282Z,100516.06
2023-05-09T20:43:14.233Z,100513.97
2023-05-09T20:45:44.178Z,100514.99
2023-05-09T20:48:14.124Z,100518.23
2023-05-09T20:50:43.981Z,100517.73
2023-05-09T20:53:14.585Z,100512.11
2023-05-09T20:55:44.442Z,100506.81
2023-05-09T20:58:14.885Z,100505.87
2023-05-09T21:00:47.657Z,100503.75
2023-05-09T21:03:17.646Z,100507.98
2023-05-09T21:05:47.540Z,100506.26
2023-05-09T21:08:18.686Z,100512.05
2023-05-09T21:10:48.930Z,100512.39
2023-05-09T21:13:19.332Z,100510.58
2023-05-09T21:15:51.547Z,100512.33
2023-05-09T21:18:21.801Z,100510.23
2023-05-09T21:20:51.877Z,100508.25
2023-05-09T21:23:22.417Z,100507.05
2023-05-09T21:25:52.295Z,100503.23
2023-05-09T21:28:22.541Z,100503.08
2023-05-09T21:30:53.556Z,100502.52
2023-05-09T21:33:23.924Z,100501.73
2023-05-09T21:35:53.810Z,100497.75
2023-05-09T21:38:24.284Z,100500.07
2023-05-09T21:40:54.256Z,100495.66
2023-05-09T21:43:26.470Z,100491.77
2023-05-09T21:45:56.648Z,100494.05
2023-05-09T21:48:26.648Z,100485.77
2023-05-09T21:50:56.708Z,100487.29
2023-05-09T21:53:26.628Z,100482.48
2023-05-09T21:55:56.476Z,100483.51
2023-05-09T21:58:26.523Z,100483.70
2023-05-09T22:00:56.338Z,100481.47
2023-05-09T22:03:26.338Z,100480.95
2023-05-09T22:05:56.670Z,100478.45
2023-05-09T22:08:26.803Z,100475.35
2023-05-09T22:10:57.177Z,100471.52
2023-05-09T22:13:28.853Z,100471.59
2023-05-09T22:15:58.882Z,100472.20
2023-05-09T22:18:29.272Z,100470.92
2023-05-09T22:20:59.314Z,100471.00
2023-05-09T22:23:29.855Z,100471.06
2023-05-09T22:25:59.937Z,100471.13
2023-05-09T22:28:31.924Z,100468.27
2023-05-09T22:31:02.232Z,100469.30
2023-05-09T22:33:32.543Z,100471.76
2023-05-09T22:36:02.972Z,100466.11
2023-05-09T22:38:32.975Z,100468.14
2023-05-09T22:41:03.067Z,100468.77
2023-05-09T22:43:38.882Z,100463.95
2023-05-09T22:46:09.645Z,100463.33
2023-05-09T22:48:39.530Z,100466.08
2023-05-09T22:51:09.604Z,100460.39
2023-05-09T22:53:40.076Z,100460.00
2023-05-09T22:56:10.811Z,100454.72
2023-05-09T22:58:41.363Z,100457.66
2023-05-09T23:01:11.390Z,100454.43
2023-05-09T23:03:41.748Z,100457.15
2023-05-09T23:06:11.663Z,100457.20
2023-05-09T23:08:41.670Z,100458.09
2023-05-09T23:11:11.900Z,100455.48
2023-05-09T23:13:42.414Z,100452.56
2023-05-09T23:16:12.728Z,100450.73
2023-05-09T23:18:42.805Z,100446.95
2023-05-09T23:21:13.083Z,100444.42
2023-05-09T23:23:43.121Z,100442.70
2023-05-09T23:26:13.248Z,100438.17
2023-05-09T23:28:43.288Z,100441.13
2023-05-09T23:31:13.410Z,100438.14
2023-05-09T23:33:43.992Z,100436.86
2023-05-09T23:36:14.034Z,100437.52
2023-05-09T23:38:44.193Z,100437.80
2023-05-09T23:41:14.369Z,100439.16
2023-05-09T23:43:44.257Z,100440.73
2023-05-09T23:46:14.360Z,100436.06
2023-05-09T23:48:44.412Z,100436.15
2023-05-09T23:51:14.276Z,100433.25
2023-05-09T23:53:44.367Z,100433.83
2023-05-09T23:56:14.302Z,100432.08
2023-05-09T23:58:44.484Z,100433.79
